Time;durP1;ratioP1;P1;durP2;ratioP2;P2;SDS_P1;SDS_P2;PMS_P1;PMS_P2;Temp;Humidity;BMP_temperature;BMP_pressure;BME280_temperature;BME280_humidity;BME280_pressure;Samples;Min_cycle;Max_cycle;Signal;HPM_P1;HPM_P2
2023/08/04 00:02:12;;;;;;;4.30;2.10;;;18.00;99.90;;;;;;5022345;28;20197;-72
2023/08/04 00:04:37;;;;;;;4.18;1.92;;;18.00;99.90;;;;;;5014803;28;20237;-72
2023/08/04 00:07:08;;;;;;;5.78;2.28;;;18.10;99.90;;;;;;5017643;28;20281;-73
2023/08/04 00:09:38;;;;;;;4.07;1.77;;;18.10;99.90;;;;;;5014082;28;20193;-72
2023/08/04 00:12:04;;;;;;;4.20;1.95;;;18.10;99.90;;;;;;5003235;28;20316;-72
2023/08/04 00:14:29;;;;;;;3.42;2.15;;;18.10;99.90;;;;;;5014469;28;20469;-70
2023/08/04 00:16:55;;;;;;;3.35;1.90;;;18.10;99.90;;;;;;5014665;28;20198;-71
2023/08/04 00:19:23;;;;;;;6.57;1.88;;;18.10;99.90;;;;;;5014374;28;20175;-72
2023/08/04 00:21:48;;;;;;;3.20;2.00;;;18.10;99.90;;;;;;5014596;28;20186;-70
2023/08/04 00:24:14;;;;;;;4.18;1.60;;;18.10;99.90;;;;;;5014340;28;20187;-72
2023/08/04 00:26:40;;;;;;;6.60;1.92;;;18.10;99.90;;;;;;5013484;28;20190;-72
2023/08/04 00:29:06;;;;;;;2.35;1.65;;;18.00;99.90;;;;;;5012205;28;20174;-72
2023/08/04 00:31:31;;;;;;;5.53;1.80;;;18.00;99.90;;;;;;5011117;28;20182;-72
2023/08/04 00:33:57;;;;;;;2.10;1.65;;;18.00;99.90;;;;;;5018733;28;20198;-70
2023/08/04 00:36:25;;;;;;;4.47;1.67;;;18.10;99.90;;;;;;5019656;28;20181;-71
2023/08/04 00:38:50;;;;;;;4.80;1.80;;;18.10;99.90;;;;;;5013472;28;20205;-72
2023/08/04 00:41:16;;;;;;;3.53;1.80;;;18.10;99.90;;;;;;5013571;28;20206;-72
2023/08/04 00:43:42;;;;;;;2.83;1.75;;;18.10;99.90;;;;;;5014243;28;20228;-72
2023/08/04 00:46:07;;;;;;;2.88;1.67;;;18.00;99.90;;;;;;5013543;28;20194;-71
2023/08/04 00:48:33;;;;;;;3.38;1.80;;;18.00;99.90;;;;;;5007112;28;20293;-72
2023/08/04 00:50:59;;;;;;;3.67;1.85;;;18.10;99.90;;;;;;5012647;28;20213;-72
2023/08/04 00:53:24;;;;;;;3.60;1.63;;;18.00;99.90;;;;;;5011228;28;20257;-72
2023/08/04 00:55:50;;;;;;;2.83;1.73;;;18.10;99.90;;;;;;5011290;28;20241;-72
2023/08/04 00:58:16;;;;;;;3.92;1.90;;;18.00;99.90;;;;;;5008785;28;20198;-71
2023/08/04 01:00:41;;;;;;;3.92;1.70;;;18.10;99.90;;;;;;5019565;28;20179;-72
2023/08/04 01:03:08;;;;;;;3.15;1.70;;;18.00;99.90;;;;;;5013276;28;20317;-72
2023/08/04 01:05:57;;;;;;;2.90;1.58;;;18.00;99.90;;;;;;5015033;28;20205;-72
2023/08/04 01:08:27;;;;;;;3.85;1.70;;;18.00;99.90;;;;;;5010950;28;20183;-70
2023/08/04 01:10:59;;;;;;;5.05;1.73;;;18.00;99.90;;;;;;5010321;28;20256;-71
2023/08/04 01:13:28;;;;;;;2.95;1.50;;;18.00;99.90;;;;;;5007688;28;20202;-72
2023/08/04 01:15:56;;;;;;;5.57;1.77;;;18.00;99.90;;;;;;5010740;28;20202;-73
2023/08/04 01:18:24;;;;;;;2.50;1.50;;;18.00;99.90;;;;;;5001504;28;20263;-72
2023/08/04 01:20:50;;;;;;;3.13;1.77;;;18.00;99.90;;;;;;5013727;28;20241;-72
2023/08/04 01:23:16;;;;;;;2.97;1.73;;;18.00;99.90;;;;;;5009254;28;20202;-72
2023/08/04 01:25:42;;;;;;;3.70;1.90;;;18.00;99.90;;;;;;5004682;28;20174;-69
2023/08/04 01:28:18;;;;;;;3.30;1.40;;;18.00;99.90;;;;;;5013174;28;20265;-72
2023/08/04 01:30:48;;;;;;;5.43;1.80;;;18.00;99.90;;;;;;5012851;28;20178;-72
2023/08/04 01:33:14;;;;;;;3.58;1.60;;;18.00;99.90;;;;;;5012802;28;20226;-66
2023/08/04 01:35:42;;;;;;;3.45;1.60;;;18.00;99.90;;;;;;5012701;28;20326;-72
2023/08/04 01:38:08;;;;;;;4.32;1.80;;;18.00;99.90;;;;;;5013447;28;20189;-72
2023/08/04 01:40:36;;;;;;;2.95;1.85;;;18.00;99.90;;;;;;5008252;28;20179;-71
2023/08/04 01:43:04;;;;;;;2.28;1.73;;;18.00;99.90;;;;;;5015356;28;20179;-72
2023/08/04 01:45:29;;;;;;;3.25;1.60;;;18.00;99.90;;;;;;5021005;28;20193;-72
2023/08/04 01:47:55;;;;;;;2.60;1.55;;;17.90;99.90;;;;;;5013471;28;20182;-72
2023/08/04 01:50:21;;;;;;;3.20;1.58;;;17.90;99.90;;;;;;5013193;28;20183;-72
2023/08/04 01:52:51;;;;;;;2.85;1.60;;;17.90;99.90;;;;;;5014086;28;20222;-72
2023/08/04 01:55:17;;;;;;;3.30;1.73;;;17.90;99.90;;;;;;5014040;28;20199;-72
2023/08/04 01:57:43;;;;;;;6.43;1.80;;;17.90;99.90;;;;;;5008647;28;20187;-70
2023/08/04 02:00:12;;;;;;;3.92;1.80;;;17.90;99.90;;;;;;5017678;28;20237;-71
2023/08/04 02:02:40;;;;;;;4.20;1.88;;;17.90;99.90;;;;;;5017420;28;20213;-72
2023/08/04 02:05:08;;;;;;;2.53;1.50;;;17.90;99.90;;;;;;5013922;28;20171;-73
2023/08/04 02:07:34;;;;;;;3.13;1.50;;;17.90;99.90;;;;;;5011090;28;20178;-75
2023/08/04 02:10:02;;;;;;;3.15;1.88;;;17.90;99.90;;;;;;5015098;28;20399;-72
2023/08/04 02:12:30;;;;;;;6.75;1.70;;;17.90;99.90;;;;;;5015656;28;20203;-72
2023/08/04 02:14:55;;;;;;;4.55;1.90;;;17.90;99.90;;;;;;5011324;28;20198;-71
2023/08/04 02:17:23;;;;;;;4.50;2.00;;;17.90;99.90;;;;;;5014754;28;20190;-70
2023/08/04 02:19:51;;;;;;;3.42;1.67;;;17.90;99.90;;;;;;5029063;28;20269;-71
2023/08/04 02:22:17;;;;;;;4.70;1.80;;;17.90;99.90;;;;;;5014153;28;20207;-70
2023/08/04 02:24:42;;;;;;;4.80;1.83;;;17.90;99.90;;;;;;5012071;28;20181;-71
2023/08/04 02:27:11;;;;;;;5.40;2.10;;;17.90;99.90;;;;;;5014645;28;20187;-71
2023/08/04 02:29:36;;;;;;;3.20;1.88;;;17.90;99.90;;;;;;5014247;28;20209;-71
2023/08/04 02:32:02;;;;;;;4.38;2.25;;;17.90;99.90;;;;;;5031741;28;20200;-67
2023/08/04 02:34:28;;;;;;;3.05;1.70;;;17.90;99.90;;;;;;5013731;28;20252;-71
2023/08/04 02:36:56;;;;;;;4.22;1.83;;;17.90;99.90;;;;;;5007343;28;20195;-71
2023/08/04 02:39:24;;;;;;;4.13;2.10;;;17.90;99.90;;;;;;5008287;28;20179;-71
2023/08/04 02:41:51;;;;;;;5.45;2.22;;;17.90;99.90;;;;;;5014347;28;20182;-71
2023/08/04 02:44:17;;;;;;;3.40;2.10;;;17.90;99.90;;;;;;5010773;28;20199;-70
2023/08/04 02:46:47;;;;;;;6.40;2.38;;;17.90;99.90;;;;;;5014472;28;20481;-71
2023/08/04 02:49:13;;;;;;;4.75;2.17;;;17.90;99.90;;;;;;5014932;28;20281;-70
2023/08/04 02:51:38;;;;;;;4.07;2.47;;;17.80;99.90;;;;;;5012821;28;20235;-72
2023/08/04 02:54:04;;;;;;;4.28;2.42;;;17.80;99.90;;;;;;5015969;28;20167;-71
2023/08/04 02:56:29;;;;;;;3.92;2.17;;;17.80;99.90;;;;;;5015160;28;20182;-72
2023/08/04 02:58:55;;;;;;;3.63;2.30;;;17.80;99.90;;;;;;5012150;28;20171;-71
2023/08/04 03:01:23;;;;;;;5.20;2.45;;;17.80;99.90;;;;;;5002778;28;20175;-70
2023/08/04 03:03:49;;;;;;;4.97;2.80;;;17.80;99.90;;;;;;5001333;28;20194;-71
2023/08/04 03:06:16;;;;;;;4.93;3.00;;;17.80;99.90;;;;;;5015852;28;20171;-72
2023/08/04 03:08:42;;;;;;;4.93;2.42;;;17.90;99.90;;;;;;5015845;28;20438;-69
2023/08/04 03:11:12;;;;;;;4.65;2.65;;;17.90;99.90;;;;;;5015770;28;20201;-72
2023/08/04 03:13:40;;;;;;;5.15;2.88;;;17.90;99.90;;;;;;5004370;28;20191;-72
2023/08/04 03:16:08;;;;;;;5.15;2.58;;;17.90;99.90;;;;;;5009564;28;20201;-72
2023/08/04 03:18:33;;;;;;;5.20;2.65;;;17.90;99.90;;;;;;5012270;28;20175;-70
2023/08/04 03:21:04;;;;;;;4.20;2.72;;;17.90;99.90;;;;;;5013017;28;20194;-71
2023/08/04 03:23:32;;;;;;;4.40;2.63;;;17.90;99.90;;;;;;5015383;28;20202;-71
2023/08/04 03:25:58;;;;;;;6.70;2.70;;;17.90;99.90;;;;;;5020640;28;20421;-72
2023/08/04 03:28:25;;;;;;;4.57;2.80;;;17.90;99.90;;;;;;5016015;28;20178;-72
2023/08/04 03:30:53;;;;;;;5.53;2.90;;;17.80;99.90;;;;;;5014410;28;20213;-72
2023/08/04 03:33:19;;;;;;;5.03;2.65;;;17.80;99.90;;;;;;5011348;28;20198;-72
2023/08/04 03:35:45;;;;;;;6.35;2.88;;;17.80;99.90;;;;;;4997105;28;20294;-72
2023/08/04 03:38:13;;;;;;;5.07;2.78;;;17.80;99.90;;;;;;5010356;28;20229;-69
2023/08/04 03:40:39;;;;;;;5.82;2.72;;;17.80;99.90;;;;;;5006236;28;20190;-70
2023/08/04 03:43:05;;;;;;;4.80;2.63;;;17.80;99.90;;;;;;5002185;28;20195;-66
2023/08/04 03:45:31;;;;;;;3.55;2.65;;;17.80;99.90;;;;;;5009397;28;20233;-66
2023/08/04 03:47:56;;;;;;;5.50;2.67;;;17.80;99.90;;;;;;5014039;28;20191;-65
2023/08/04 03:50:24;;;;;;;4.50;2.40;;;17.70;99.90;;;;;;5014512;28;20179;-66
2023/08/04 03:52:49;;;;;;;5.63;2.85;;;17.70;99.90;;;;;;5015231;28;20222;-64
2023/08/04 03:55:15;;;;;;;4.57;2.30;;;17.70;99.90;;;;;;5016248;28;20194;-64
2023/08/04 03:57:40;;;;;;;4.03;2.38;;;17.70;99.90;;;;;;5017713;28;20216;-66
2023/08/04 04:00:09;;;;;;;9.10;3.00;;;17.60;99.90;;;;;;5021166;28;20167;-64
2023/08/04 04:02:35;;;;;;;7.30;3.17;;;17.60;99.90;;;;;;5014115;28;20206;-64
2023/08/04 04:05:01;;;;;;;6.15;2.80;;;17.60;99.90;;;;;;5011969;28;20195;-64
2023/08/04 04:07:26;;;;;;;5.43;2.80;;;17.60;99.90;;;;;;5012840;28;20305;-64
2023/08/04 04:09:54;;;;;;;7.43;3.05;;;17.60;99.90;;;;;;5013254;28;20238;-65
2023/08/04 04:12:20;;;;;;;6.63;3.05;;;17.60;99.90;;;;;;5022844;28;20209;-65
2023/08/04 04:14:48;;;;;;;4.13;2.72;;;17.60;99.90;;;;;;5011515;28;20171;-65
2023/08/04 04:17:13;;;;;;;5.57;3.00;;;17.60;99.90;;;;;;5014592;28;20230;-65
2023/08/04 04:19:40;;;;;;;4.85;2.85;;;17.60;99.90;;;;;;5013913;28;20193;-64
2023/08/04 04:22:11;;;;;;;5.20;2.67;;;17.60;99.90;;;;;;5020765;28;20177;-65
2023/08/04 04:24:39;;;;;;;6.97;2.88;;;17.60;99.90;;;;;;5000477;28;20182;-64
2023/08/04 04:27:11;;;;;;;5.70;3.40;;;17.60;99.90;;;;;;5014071;28;20324;-64
2023/08/04 04:29:37;;;;;;;6.68;3.00;;;17.50;99.90;;;;;;5013946;28;20225;-65
2023/08/04 04:32:08;;;;;;;10.82;3.55;;;17.50;99.90;;;;;;5005967;28;20206;-65
2023/08/04 04:34:36;;;;;;;5.97;3.05;;;17.50;99.90;;;;;;5011399;28;20762;-65
2023/08/04 04:37:01;;;;;;;4.20;2.80;;;17.50;99.90;;;;;;5014432;28;20179;-64
2023/08/04 04:39:27;;;;;;;6.80;3.15;;;17.50;99.90;;;;;;5013994;28;20262;-64
2023/08/04 04:41:55;;;;;;;6.53;3.08;;;17.60;99.90;;;;;;5014267;28;20213;-65
2023/08/04 04:44:20;;;;;;;5.63;3.05;;;17.50;99.90;;;;;;5001111;28;20182;-65
2023/08/04 04:46:46;;;;;;;6.90;3.05;;;17.50;99.90;;;;;;5019479;28;20197;-65
2023/08/04 04:49:12;;;;;;;6.65;3.20;;;17.60;99.90;;;;;;5012417;28;20187;-65
2023/08/04 04:51:39;;;;;;;5.22;2.88;;;17.60;99.90;;;;;;5014491;28;20232;-64
2023/08/04 04:54:05;;;;;;;5.72;2.92;;;17.60;99.90;;;;;;5013710;28;20198;-64
2023/08/04 04:56:31;;;;;;;6.53;3.00;;;17.60;99.90;;;;;;5012044;28;20275;-65
2023/08/04 04:58:57;;;;;;;9.27;3.13;;;17.60;99.90;;;;;;5010595;28;20206;-65
2023/08/04 05:01:22;;;;;;;6.07;2.75;;;17.60;99.90;;;;;;5008268;28;20174;-65
2023/08/04 05:03:48;;;;;;;5.88;3.38;;;17.60;99.90;;;;;;5021272;28;20205;-64
2023/08/04 05:06:18;;;;;;;5.40;3.25;;;17.60;99.90;;;;;;5010113;28;20202;-65
2023/08/04 05:08:44;;;;;;;8.02;2.97;;;17.60;99.90;;;;;;5011921;28;20182;-64
2023/08/04 05:11:14;;;;;;;7.32;3.20;;;17.60;99.90;;;;;;5011546;28;20178;-65
2023/08/04 05:13:43;;;;;;;6.05;3.15;;;17.60;99.90;;;;;;5005730;28;20187;-65
2023/08/04 05:16:09;;;;;;;7.93;2.80;;;17.60;99.90;;;;;;5013592;28;20170;-65
2023/08/04 05:18:34;;;;;;;6.95;2.97;;;17.60;99.90;;;;;;5014633;28;20382;-64
2023/08/04 05:21:00;;;;;;;5.88;3.15;;;17.60;99.90;;;;;;5008945;28;20273;-65
2023/08/04 05:23:28;;;;;;;8.90;3.10;;;17.60;99.90;;;;;;5010549;28;20179;-64
2023/08/04 05:25:53;;;;;;;7.50;2.78;;;17.60;99.90;;;;;;5013581;28;20214;-65
2023/08/04 05:28:27;;;;;;;6.68;2.83;;;17.60;99.90;;;;;;5017362;28;20312;-66
2023/08/04 05:30:57;;;;;;;6.10;3.00;;;17.60;99.90;;;;;;5013309;28;20201;-65
2023/08/04 05:33:24;;;;;;;6.30;2.90;;;17.50;99.90;;;;;;5016817;28;20206;-65
2023/08/04 05:35:50;;;;;;;7.53;2.70;;;17.50;99.90;;;;;;5017087;28;20534;-66
2023/08/04 05:38:18;;;;;;;5.90;3.08;;;17.50;99.90;;;;;;5015194;28;20261;-65
2023/08/04 05:40:48;;;;;;;7.22;3.20;;;17.50;99.90;;;;;;5016934;28;20255;-65
2023/08/04 05:43:16;;;;;;;5.47;3.60;;;17.50;99.90;;;;;;5013433;28;20202;-65
2023/08/04 05:45:47;;;;;;;6.93;3.30;;;17.50;99.90;;;;;;5021985;28;20186;-65
2023/08/04 05:48:13;;;;;;;5.57;2.95;;;17.50;99.90;;;;;;5012621;28;20221;-65
2023/08/04 05:50:44;;;;;;;4.70;3.00;;;17.60;99.90;;;;;;5015959;28;20213;-65
2023/08/04 05:53:12;;;;;;;7.57;3.08;;;17.60;99.90;;;;;;5010344;28;20202;-66
2023/08/04 05:55:40;;;;;;;6.30;3.17;;;17.60;99.90;;;;;;5015507;28;20277;-66
2023/08/04 05:58:06;;;;;;;8.25;3.22;;;17.60;99.90;;;;;;5014718;28;20174;-66
2023/08/04 06:00:32;;;;;;;6.88;3.58;;;17.70;99.90;;;;;;5016897;28;20262;-66
2023/08/04 06:03:00;;;;;;;8.18;3.30;;;17.70;99.90;;;;;;5014106;28;20210;-66
2023/08/04 06:05:26;;;;;;;7.10;3.35;;;17.70;99.90;;;;;;5012516;28;20183;-66
2023/08/04 06:07:52;;;;;;;6.25;3.42;;;17.70;99.90;;;;;;5015764;28;20245;-65
2023/08/04 06:10:21;;;;;;;5.55;2.97;;;17.80;99.90;;;;;;5016610;28;20194;-66
2023/08/04 06:12:47;;;;;;;5.10;3.00;;;17.80;99.90;;;;;;5015956;28;20190;-66
2023/08/04 06:15:14;;;;;;;4.88;2.90;;;17.80;99.90;;;;;;5017524;28;20177;-66
2023/08/04 06:17:43;;;;;;;5.53;2.85;;;17.90;99.90;;;;;;5014492;28;20181;-66
2023/08/04 06:20:11;;;;;;;4.03;2.80;;;17.90;99.90;;;;;;5015196;28;20175;-65
2023/08/04 06:22:39;;;;;;;6.72;2.72;;;17.90;99.90;;;;;;5016098;28;20178;-64
2023/08/04 06:25:05;;;;;;;4.75;2.80;;;18.00;99.90;;;;;;5011873;28;20201;-65
2023/08/04 06:27:31;;;;;;;8.43;3.03;;;18.00;99.90;;;;;;5016127;28;20209;-64
2023/08/04 06:30:04;;;;;;;7.45;3.45;;;18.10;99.90;;;;;;5016617;28;20237;-64
2023/08/04 06:32:32;;;;;;;6.18;3.00;;;18.10;99.90;;;;;;5016679;28;20198;-64
2023/08/04 06:34:57;;;;;;;6.55;3.10;;;18.20;99.90;;;;;;5008227;28;20179;-64
2023/08/04 06:37:24;;;;;;;6.20;3.13;;;18.20;99.90;;;;;;5012733;28;20187;-65
2023/08/04 06:39:50;;;;;;;5.05;3.42;;;18.20;99.90;;;;;;5016904;28;20162;-65
2023/08/04 06:42:19;;;;;;;5.88;3.40;;;18.30;99.90;;;;;;5016061;28;20293;-65
2023/08/04 06:44:48;;;;;;;5.68;2.80;;;18.30;99.90;;;;;;5016847;28;20277;-66
2023/08/04 06:47:14;;;;;;;6.65;3.15;;;18.30;99.90;;;;;;5015345;28;20200;-65
2023/08/04 06:49:42;;;;;;;7.32;3.20;;;18.30;99.90;;;;;;5015958;28;20210;-64
2023/08/04 06:52:08;;;;;;;5.63;3.20;;;18.30;99.90;;;;;;5015058;28;20199;-65
2023/08/04 06:54:35;;;;;;;5.22;3.40;;;18.40;99.90;;;;;;5013613;28;20179;-63
2023/08/04 06:57:01;;;;;;;5.53;3.33;;;18.40;99.90;;;;;;5011161;28;20198;-65
2023/08/04 06:59:26;;;;;;;5.90;3.55;;;18.50;99.90;;;;;;5016095;28;20174;-65
2023/08/04 07:01:52;;;;;;;6.78;3.50;;;18.60;99.90;;;;;;5015640;28;20240;-65
2023/08/04 07:04:20;;;;;;;8.07;3.55;;;18.60;99.90;;;;;;5008864;28;20308;-65
2023/08/04 07:06:46;;;;;;;10.40;4.28;;;18.70;99.90;;;;;;5014830;28;20190;-65
2023/08/04 07:09:11;;;;;;;5.45;3.40;;;18.70;99.90;;;;;;5012497;28;20218;-65
2023/08/04 07:11:38;;;;;;;9.15;3.72;;;18.70;99.90;;;;;;5013908;28;20179;-65
2023/08/04 07:14:06;;;;;;;5.68;3.38;;;18.70;99.90;;;;;;5008809;28;20244;-65
2023/08/04 07:16:34;;;;;;;6.25;3.75;;;18.70;99.90;;;;;;5015636;28;20202;-67
2023/08/04 07:19:02;;;;;;;6.80;3.45;;;18.70;99.90;;;;;;5013166;28;20178;-65
2023/08/04 07:21:27;;;;;;;5.97;3.45;;;18.80;99.90;;;;;;5012353;28;20176;-66
2023/08/04 07:23:53;;;;;;;5.93;3.60;;;18.80;99.90;;;;;;5009354;28;20202;-65
2023/08/04 07:26:19;;;;;;;4.05;3.38;;;18.90;99.90;;;;;;5014124;28;20197;-67
2023/08/04 07:28:44;;;;;;;5.25;3.38;;;19.00;99.90;;;;;;5012968;28;20187;-66
2023/08/04 07:31:12;;;;;;;6.60;3.60;;;19.00;99.90;;;;;;5012561;28;20210;-64
2023/08/04 07:33:43;;;;;;;8.70;3.67;;;19.10;99.90;;;;;;5012650;28;20234;-65
2023/08/04 07:36:11;;;;;;;6.25;3.67;;;19.10;99.90;;;;;;5011857;28;20180;-65
2023/08/04 07:38:38;;;;;;;5.50;3.40;;;19.20;99.90;;;;;;5003340;28;20199;-68
2023/08/04 07:41:06;;;;;;;6.35;3.55;;;19.20;99.90;;;;;;5021719;28;20174;-64
2023/08/04 07:43:34;;;;;;;6.10;3.75;;;19.30;99.90;;;;;;5011979;28;20198;-65
2023/08/04 07:46:02;;;;;;;6.88;4.00;;;19.30;99.90;;;;;;5014568;28;20229;-66
2023/08/04 07:48:29;;;;;;;7.28;4.15;;;19.30;99.90;;;;;;5022770;28;20195;-65
2023/08/04 07:50:55;;;;;;;6.53;3.53;;;19.40;99.90;;;;;;5011949;28;20172;-64
2023/08/04 07:53:22;;;;;;;6.22;3.83;;;19.40;99.90;;;;;;5015018;28;20252;-64
2023/08/04 07:55:58;;;;;;;6.32;4.13;;;19.40;99.90;;;;;;5003672;28;20213;-65
2023/08/04 07:58:26;;;;;;;6.43;3.70;;;19.50;99.90;;;;;;5013782;28;20293;-65
2023/08/04 08:00:52;;;;;;;6.50;3.78;;;19.50;99.90;;;;;;5015329;28;20175;-65
2023/08/04 08:03:18;;;;;;;6.47;4.45;;;19.60;99.90;;;;;;5013558;28;20194;-64
2023/08/04 08:05:43;;;;;;;8.45;4.10;;;19.60;99.90;;;;;;5010820;28;20182;-65
2023/08/04 08:08:09;;;;;;;6.47;3.95;;;19.70;99.90;;;;;;5012731;28;20190;-66
2023/08/04 08:10:37;;;;;;;7.50;4.10;;;19.80;99.90;;;;;;5012119;28;20178;-64
2023/08/04 08:13:03;;;;;;;6.25;4.20;;;19.90;99.90;;;;;;5013040;28;20202;-65
2023/08/04 08:15:29;;;;;;;12.50;4.32;;;20.00;99.90;;;;;;5010858;28;20183;-65
2023/08/04 08:17:54;;;;;;;6.57;4.07;;;20.10;99.90;;;;;;5029772;28;20175;-64
2023/08/04 08:20:22;;;;;;;5.25;3.80;;;20.20;99.90;;;;;;5011423;28;20175;-65
2023/08/04 08:22:50;;;;;;;7.75;4.40;;;20.30;99.90;;;;;;5014118;28;20174;-64
2023/08/04 08:25:16;;;;;;;4.43;3.70;;;20.30;99.90;;;;;;5009919;28;20187;-64
2023/08/04 08:27:41;;;;;;;7.35;3.88;;;20.30;99.90;;;;;;5013634;28;20209;-65
2023/08/04 08:30:07;;;;;;;5.55;3.90;;;20.30;99.90;;;;;;5013028;28;20274;-65
2023/08/04 08:32:35;;;;;;;6.13;3.75;;;20.30;99.90;;;;;;5013031;28;20194;-64
2023/08/04 08:35:01;;;;;;;7.45;4.13;;;20.30;99.90;;;;;;5008448;28;20175;-65
2023/08/04 08:37:26;;;;;;;7.00;3.75;;;20.20;99.90;;;;;;5005392;28;20171;-65
2023/08/04 08:39:52;;;;;;;5.75;3.45;;;20.20;99.90;;;;;;5012726;28;20171;-64
2023/08/04 08:42:19;;;;;;;6.88;4.57;;;20.20;99.90;;;;;;5008379;28;20217;-65
2023/08/04 08:44:45;;;;;;;5.03;4.25;;;20.20;99.90;;;;;;5014770;28;20178;-66
2023/08/04 08:47:11;;;;;;;7.82;3.83;;;20.20;99.90;;;;;;5018138;28;20178;-64
2023/08/04 08:49:45;;;;;;;5.03;3.65;;;20.30;99.90;;;;;;5010495;28;20246;-65
2023/08/04 08:52:11;;;;;;;5.45;3.50;;;20.30;99.90;;;;;;5026909;28;20263;-66
2023/08/04 08:54:40;;;;;;;4.78;3.28;;;20.30;99.90;;;;;;5006679;28;20343;-65
2023/08/04 08:57:06;;;;;;;5.78;3.35;;;20.20;99.90;;;;;;5026159;28;20210;-64
2023/08/04 08:59:33;;;;;;;5.95;2.88;;;20.20;99.90;;;;;;5011202;28;20186;-64
2023/08/04 09:02:03;;;;;;;4.43;3.20;;;20.20;99.90;;;;;;5010045;28;20257;-65
2023/08/04 09:04:33;;;;;;;4.47;2.97;;;20.30;99.90;;;;;;5011261;28;20199;-65
2023/08/04 09:07:02;;;;;;;4.72;3.10;;;20.30;99.90;;;;;;5005892;28;20194;-66
2023/08/04 09:09:27;;;;;;;5.35;3.30;;;20.40;99.90;;;;;;5012942;28;20174;-65
2023/08/04 09:11:56;;;;;;;6.35;3.10;;;20.40;99.90;;;;;;5010562;28;20194;-66
2023/08/04 09:14:24;;;;;;;5.07;2.83;;;20.50;99.90;;;;;;5005382;28;20175;-65
2023/08/04 09:16:52;;;;;;;5.97;3.10;;;20.50;99.90;;;;;;5013761;28;20182;-65
2023/08/04 09:19:20;;;;;;;9.13;3.20;;;20.60;99.90;;;;;;4994572;28;20210;-65
2023/08/04 09:21:56;;;;;;;7.82;3.30;;;20.60;99.90;;;;;;5001616;28;20249;-65
2023/08/04 09:24:24;;;;;;;5.00;3.35;;;20.70;99.90;;;;;;5005595;28;20241;-65
2023/08/04 09:26:49;;;;;;;4.70;2.88;;;20.70;99.90;;;;;;5012525;28;20206;-65
2023/08/04 09:29:18;;;;;;;4.70;2.80;;;20.70;99.90;;;;;;5012142;28;20179;-66
2023/08/04 09:31:52;;;;;;;7.15;3.03;;;20.70;99.90;;;;;;5012522;28;20221;-65
2023/08/04 09:34:22;;;;;;;3.58;2.78;;;20.70;99.90;;;;;;5014388;28;20193;-65
2023/08/04 09:36:51;;;;;;;4.00;2.20;;;20.60;99.90;;;;;;5011289;28;20175;-64
2023/08/04 09:39:19;;;;;;;4.35;2.60;;;20.60;99.90;;;;;;5013138;28;20199;-65
2023/08/04 09:41:49;;;;;;;4.43;2.30;;;20.60;99.90;;;;;;5007635;28;20175;-65
2023/08/04 09:44:17;;;;;;;3.67;2.40;;;20.50;99.90;;;;;;5007902;28;20175;-65
2023/08/04 09:46:53;;;;;;;2.58;2.20;;;20.40;99.90;;;;;;5004822;28;20237;-65
2023/08/04 09:49:19;;;;;;;5.72;2.72;;;20.30;99.90;;;;;;5013745;28;20489;-65
2023/08/04 09:51:45;;;;;;;4.75;2.58;;;20.20;99.90;;;;;;5013752;28;20266;-64
2023/08/04 09:54:11;;;;;;;3.95;2.40;;;20.10;99.90;;;;;;5013478;28;20274;-65
2023/08/04 09:56:37;;;;;;;4.07;2.50;;;20.10;99.90;;;;;;5013257;28;20182;-65
2023/08/04 09:59:03;;;;;;;3.08;2.60;;;20.00;99.90;;;;;;5009717;28;20183;-66
2023/08/04 10:01:33;;;;;;;6.43;2.75;;;19.90;99.90;;;;;;5008731;28;20167;-64
2023/08/04 10:04:03;;;;;;;4.97;3.20;;;19.80;99.90;;;;;;5013417;28;20179;-66
2023/08/04 10:06:35;;;;;;;3.83;2.88;;;19.70;99.90;;;;;;5007480;28;20236;-66
2023/08/04 10:09:01;;;;;;;4.05;2.88;;;19.60;99.90;;;;;;5013270;28;20170;-66
2023/08/04 10:11:26;;;;;;;4.20;2.95;;;19.50;99.90;;;;;;5013177;28;20229;-67
2023/08/04 10:13:54;;;;;;;4.95;3.58;;;19.40;99.90;;;;;;5013845;28;20200;-67
2023/08/04 10:16:23;;;;;;;4.47;2.95;;;19.30;99.90;;;;;;5000236;28;20203;-66
2023/08/04 10:18:56;;;;;;;3.50;2.80;;;19.20;99.90;;;;;;5015167;28;20170;-66
2023/08/04 10:21:29;;;;;;;4.63;2.85;;;19.10;99.90;;;;;;5016146;28;20174;-67
2023/08/04 10:23:57;;;;;;;5.53;3.60;;;19.00;99.90;;;;;;5015381;28;20208;-65
2023/08/04 10:26:23;;;;;;;4.82;3.13;;;18.90;99.90;;;;;;5015544;28;20174;-65
2023/08/04 10:29:06;;;;;;;4.53;3.17;;;18.70;99.90;;;;;;5015413;28;20194;-66
2023/08/04 10:31:40;;;;;;;4.68;3.15;;;18.70;99.90;;;;;;5011599;28;21458;-64
2023/08/04 10:34:16;;;;;;;4.72;3.13;;;18.70;99.90;;;;;;5016040;28;20206;-66
2023/08/04 10:37:00;;;;;;;9.13;3.75;;;18.70;99.90;;;;;;5013024;28;20229;-65
2023/08/04 10:39:45;;;;;;;6.22;3.53;;;18.70;99.90;;;;;;5023365;28;20183;-67
2023/08/04 10:42:11;;;;;;;5.95;3.60;;;18.60;99.90;;;;;;5010176;28;20179;-66
2023/08/04 10:45:12;;;;;;;5.25;3.30;;;18.60;99.90;;;;;;5002882;28;20213;-65
2023/08/04 10:47:43;;;;;;;5.25;3.60;;;18.60;99.90;;;;;;4978527;28;20189;-64
2023/08/04 10:50:09;;;;;;;4.68;3.40;;;18.70;99.90;;;;;;5011221;28;20210;-67
2023/08/04 10:52:38;;;;;;;5.50;3.60;;;18.70;99.90;;;;;;5017736;28;20245;-67
2023/08/04 10:55:06;;;;;;;6.43;3.72;;;18.70;99.90;;;;;;5021081;28;20183;-67
2023/08/04 10:57:35;;;;;;;6.07;4.00;;;18.80;99.90;;;;;;5014942;28;20198;-67
2023/08/04 11:00:03;;;;;;;6.65;4.38;;;18.80;99.90;;;;;;5012059;28;20178;-65
2023/08/04 11:02:29;;;;;;;6.13;3.97;;;18.90;99.90;;;;;;5016288;28;20187;-66
2023/08/04 11:04:57;;;;;;;8.85;4.40;;;19.00;99.90;;;;;;5012174;28;20245;-67
2023/08/04 11:07:24;;;;;;;6.20;4.28;;;19.10;99.90;;;;;;5010938;28;20178;-65
2023/08/04 11:09:51;;;;;;;7.03;3.60;;;19.20;99.90;;;;;;5017368;28;20187;-65
2023/08/04 11:12:20;;;;;;;4.78;3.90;;;19.30;99.90;;;;;;5017650;28;20190;-66
2023/08/04 11:14:46;;;;;;;5.18;3.60;;;19.40;99.90;;;;;;5011558;28;20468;-65
2023/08/04 11:17:17;;;;;;;5.88;3.90;;;19.50;99.90;;;;;;5017206;28;20229;-65
2023/08/04 11:19:47;;;;;;;5.72;3.72;;;19.60;99.90;;;;;;5015158;28;20298;-66
2023/08/04 11:22:15;;;;;;;4.18;3.70;;;19.70;99.90;;;;;;5009361;28;20270;-66
2023/08/04 11:24:44;;;;;;;7.00;4.40;;;19.90;99.90;;;;;;5023443;28;20237;-66
2023/08/04 11:27:12;;;;;;;7.57;3.80;;;20.00;99.90;;;;;;5011393;28;20179;-65
2023/08/04 11:29:38;;;;;;;6.30;3.72;;;20.10;99.90;;;;;;5003533;28;20179;-65
2023/08/04 11:32:21;;;;;;;8.77;3.90;;;20.10;99.90;;;;;;5019455;28;20205;-66
2023/08/04 11:34:47;;;;;;;5.20;3.83;;;20.30;99.90;;;;;;5015420;28;20406;-66
2023/08/04 11:37:16;;;;;;;6.35;3.60;;;20.40;99.90;;;;;;5012608;28;20236;-66
2023/08/04 11:39:46;;;;;;;4.88;3.88;;;20.50;99.90;;;;;;5020962;28;20244;-66
2023/08/04 11:42:13;;;;;;;4.60;3.90;;;20.70;99.90;;;;;;5001261;28;20321;-66
2023/08/04 11:44:45;;;;;;;4.40;3.67;;;20.90;99.90;;;;;;5018651;28;20553;-75
2023/08/04 11:47:13;;;;;;;5.15;3.50;;;21.20;99.90;;;;;;5015526;28;20178;-75
2023/08/04 11:49:40;;;;;;;5.63;4.13;;;21.40;99.90;;;;;;5015509;28;20186;-76
2023/08/04 11:52:10;;;;;;;4.50;3.20;;;21.50;99.90;;;;;;5021280;28;20177;-75
2023/08/04 11:54:38;;;;;;;4.25;3.10;;;21.70;99.90;;;;;;5025684;28;20185;-75
2023/08/04 11:57:04;;;;;;;4.75;3.00;;;21.80;99.90;;;;;;5026140;28;20221;-72
2023/08/04 11:59:30;;;;;;;7.68;3.55;;;22.00;99.90;;;;;;5032790;28;20330;-74
2023/08/04 12:02:06;;;;;;;3.58;3.15;;;22.10;99.90;;;;;;5022343;28;20198;-74
2023/08/04 12:04:32;;;;;;;3.80;3.25;;;22.20;99.90;;;;;;5014568;28;20224;-73
2023/08/04 12:07:05;;;;;;;5.93;3.25;;;22.50;99.90;;;;;;5013671;28;20210;-71
2023/08/04 12:09:32;;;;;;;3.85;2.70;;;22.70;99.90;;;;;;5009856;28;20222;-73
2023/08/04 12:11:58;;;;;;;3.28;2.50;;;22.80;99.90;;;;;;5003527;28;20172;-73
2023/08/04 12:14:24;;;;;;;4.50;2.70;;;22.90;99.90;;;;;;5015235;28;20182;-73
2023/08/04 12:16:49;;;;;;;6.60;2.55;;;23.10;99.90;;;;;;5003159;28;20194;-74
2023/08/04 12:19:17;;;;;;;4.15;2.28;;;23.20;99.90;;;;;;5011907;28;20182;-75
2023/08/04 12:21:47;;;;;;;2.65;2.10;;;23.30;99.90;;;;;;5030392;28;20193;-75
2023/08/04 12:24:13;;;;;;;4.68;2.25;;;23.30;99.90;;;;;;5011701;28;20225;-75
2023/08/04 12:26:42;;;;;;;5.13;2.08;;;23.40;99.90;;;;;;5007143;28;20185;-74
2023/08/04 12:29:09;;;;;;;4.93;2.13;;;23.40;99.90;;;;;;5012717;28;20181;-75
2023/08/04 12:31:40;;;;;;;3.33;2.15;;;23.50;99.90;;;;;;5016569;28;20190;-75
2023/08/04 12:34:08;;;;;;;3.85;1.90;;;23.50;99.90;;;;;;5020585;28;20281;-75
2023/08/04 12:36:37;;;;;;;3.25;2.13;;;23.60;99.90;;;;;;5009773;28;20397;-73
2023/08/04 12:39:04;;;;;;;3.38;2.05;;;23.60;99.90;;;;;;5022802;28;20186;-74
2023/08/04 12:41:32;;;;;;;3.03;1.90;;;23.50;99.90;;;;;;5014649;28;20178;-69
2023/08/04 12:43:58;;;;;;;5.90;2.35;;;23.50;99.90;;;;;;5016558;28;20212;-74
2023/08/04 12:46:27;;;;;;;3.65;2.00;;;23.40;99.90;;;;;;5014543;28;20265;-72
2023/08/04 12:48:56;;;;;;;2.80;1.90;;;23.40;99.90;;;;;;5011962;28;20220;-74